createdAt,value
2022-09-06T00:00:00.612Z,21.28
2022-09-06T00:01:00.649Z,21.31
2022-09-06T00:02:00.639Z,21.28
2022-09-06T00:03:00.563Z,21.30
2022-09-06T00:04:00.562Z,21.30
2022-09-06T00:05:00.542Z,21.31
2022-09-06T00:06:01.442Z,21.31
2022-09-06T00:07:00.534Z,21.33
2022-09-06T00:08:00.514Z,21.33
2022-09-06T00:09:00.536Z,21.36
2022-09-06T00:10:00.548Z,21.33
2022-09-06T00:11:01.428Z,21.37
2022-09-06T00:12:00.374Z,21.38
2022-09-06T00:13:00.445Z,21.42
2022-09-06T00:14:00.434Z,21.45
2022-09-06T00:15:00.472Z,21.49
2022-09-06T00:16:00.535Z,21.52
2022-09-06T00:17:00.527Z,21.52
2022-09-06T00:18:00.575Z,21.51
2022-09-06T00:19:00.586Z,21.51
2022-09-06T00:20:00.266Z,21.53
2022-09-06T00:21:00.256Z,21.55
2022-09-06T00:22:00.303Z,21.55
2022-09-06T00:23:00.216Z,21.55
2022-09-06T00:24:00.218Z,21.55
2022-09-06T00:25:00.254Z,21.56
2022-09-06T00:26:00.299Z,21.63
2022-09-06T00:27:00.341Z,21.70
2022-09-06T00:28:00.146Z,21.79
2022-09-06T00:29:00.207Z,21.89
2022-09-06T00:30:00.278Z,21.96
2022-09-06T00:31:00.422Z,22.04
2022-09-06T00:32:00.117Z,22.11
2022-09-06T00:33:00.083Z,22.19
2022-09-06T00:34:00.084Z,22.21
2022-09-06T00:35:00.117Z,22.26
2022-09-06T00:36:00.193Z,22.24
2022-09-06T00:37:00.184Z,22.19
2022-09-06T00:38:00.199Z,22.12
2022-09-06T00:39:00.198Z,22.05
2022-09-06T00:40:00.312Z,21.98
2022-09-06T00:41:00.218Z,21.94
2022-09-06T00:42:00.235Z,22.01
2022-09-06T00:43:00.240Z,22.08
2022-09-06T00:44:00.234Z,22.09
2022-09-06T00:45:00.324Z,22.17
2022-09-06T00:46:00.320Z,22.23
2022-09-06T00:46:59.915Z,22.29
2022-09-06T00:47:59.976Z,22.33
2022-09-06T00:48:59.876Z,22.39
2022-09-06T00:49:59.870Z,22.48
2022-09-06T00:50:59.920Z,22.59
2022-09-06T00:51:59.981Z,22.64
2022-09-06T00:52:59.830Z,22.75
2022-09-06T00:53:59.890Z,22.79
2022-09-06T00:54:59.955Z,22.79
2022-09-06T00:55:59.980Z,22.79
2022-09-06T00:56:59.772Z,22.75
2022-09-06T00:57:59.855Z,22.76
2022-09-06T00:58:59.858Z,22.74
2022-09-06T00:59:59.862Z,22.74
2022-09-06T01:00:59.884Z,22.72
2022-09-06T01:01:59.958Z,22.69
2022-09-06T01:02:59.910Z,22.66
2022-09-06T01:03:59.904Z,22.63
2022-09-06T01:04:59.894Z,22.60
2022-09-06T01:05:59.876Z,22.59
2022-09-06T01:06:59.877Z,22.56
2022-09-06T01:07:59.907Z,22.56
2022-09-06T01:08:59.906Z,22.49
2022-09-06T01:10:00.891Z,22.46
2022-09-06T01:10:59.944Z,22.45
2022-09-06T01:11:59.566Z,22.42
2022-09-06T01:12:59.557Z,22.38
2022-09-06T01:13:59.618Z,22.30
2022-09-06T01:14:59.628Z,22.23
2022-09-06T01:15:59.642Z,22.12
2022-09-06T01:16:59.562Z,22.05
2022-09-06T01:17:59.486Z,21.99
2022-09-06T01:18:59.562Z,21.91
2022-09-06T01:19:59.647Z,21.83
2022-09-06T01:21:00.399Z,21.75
2022-09-06T01:21:59.406Z,21.70
2022-09-06T01:22:59.434Z,21.66
2022-09-06T01:23:59.494Z,21.59
2022-09-06T01:24:59.546Z,21.53
2022-09-06T01:25:59.578Z,21.46
2022-09-06T01:26:59.560Z,21.43
2022-09-06T01:27:59.616Z,21.33
2022-09-06T01:29:00.632Z,21.27
2022-09-06T01:29:59.706Z,21.19
2022-09-06T01:30:59.811Z,21.12
2022-09-06T01:31:59.805Z,21.06
2022-09-06T01:32:59.818Z,20.97
2022-09-06T01:33:59.856Z,20.88
2022-09-06T01:34:59.872Z,20.88
2022-09-06T01:35:59.930Z,20.82
2022-09-06T01:37:10.431Z,20.78
2022-09-06T01:38:00.981Z,20.76
2022-09-06T01:39:00.001Z,20.72
2022-09-06T01:39:59.234Z,20.66
2022-09-06T01:40:59.230Z,20.60
2022-09-06T01:41:59.270Z,20.56
2022-09-06T01:42:59.254Z,20.48
2022-09-06T01:43:59.309Z,20.42
2022-09-06T01:44:59.340Z,20.37
2022-09-06T01:45:59.453Z,20.35
2022-09-06T01:46:59.572Z,20.31
2022-09-06T01:47:59.465Z,20.31
2022-09-06T01:48:59.516Z,20.27
2022-09-06T01:49:59.522Z,20.26
2022-09-06T01:50:59.556Z,20.22
2022-09-06T01:51:59.035Z,20.17
2022-09-06T01:52:59.115Z,20.15
2022-09-06T01:53:59.107Z,20.15
2022-09-06T01:54:59.122Z,20.17
2022-09-06T01:55:59.146Z,20.16
2022-09-06T01:56:59.182Z,20.19
2022-09-06T01:57:59.204Z,20.19
2022-09-06T01:58:59.252Z,20.22
2022-09-06T01:59:59.302Z,20.23
2022-09-06T02:00:59.330Z,20.17
2022-09-06T02:01:58.912Z,20.16
2022-09-06T02:02:59.894Z,20.17
2022-09-06T02:03:58.996Z,20.19
2022-09-06T02:04:59.007Z,20.17
2022-09-06T02:05:59.044Z,20.15
2022-09-06T02:06:59.096Z,20.13
2022-09-06T02:07:59.117Z,20.10
2022-09-06T02:08:59.157Z,20.07
2022-09-06T02:09:58.829Z,20.04
2022-09-06T02:10:58.870Z,20.02
2022-09-06T02:11:58.946Z,20.04
2022-09-06T02:12:59.022Z,20.05
2022-09-06T02:13:59.089Z,20.05
2022-09-06T02:14:59.186Z,20.07
2022-09-06T02:15:59.225Z,20.10
2022-09-06T02:16:59.378Z,20.10
2022-09-06T02:17:59.368Z,20.12
2022-09-06T02:18:59.435Z,20.08
2022-09-06T02:19:59.533Z,20.08
2022-09-06T02:20:59.587Z,20.07
2022-09-06T02:21:58.630Z,20.07
2022-09-06T02:22:58.728Z,20.05
2022-09-06T02:23:58.784Z,20.07
2022-09-06T02:24:58.867Z,20.07
2022-09-06T02:25:58.988Z,20.07
2022-09-06T02:26:59.016Z,20.05
2022-09-06T02:27:59.084Z,20.07
2022-09-06T02:28:59.110Z,20.07
2022-09-06T02:29:59.172Z,20.10
2022-09-06T02:30:59.271Z,20.10
2022-09-06T02:31:59.271Z,20.12
2022-09-06T02:32:59.316Z,20.10
2022-09-06T02:34:00.191Z,20.10
2022-09-06T02:34:59.385Z,20.08
2022-09-06T02:35:58.353Z,20.08
2022-09-06T02:36:58.449Z,20.07
2022-09-06T02:37:58.433Z,20.04
2022-09-06T02:38:58.460Z,20.02
2022-09-06T02:39:58.516Z,20.01
2022-09-06T02:40:58.525Z,20.01
2022-09-06T02:41:58.571Z,20.04
2022-09-06T02:42:58.603Z,20.02
2022-09-06T02:43:58.635Z,20.05
2022-09-06T02:44:58.678Z,20.02
2022-09-06T02:45:58.754Z,20.04
2022-09-06T02:46:58.726Z,20.04
2022-09-06T02:47:58.772Z,20.04
2022-09-06T02:48:58.778Z,20.02
2022-09-06T02:49:58.795Z,20.04
2022-09-06T02:50:58.812Z,20.04
2022-09-06T02:51:58.842Z,20.01
2022-09-06T02:52:58.858Z,20.02
2022-09-06T02:53:58.892Z,20.05
2022-09-06T02:54:58.918Z,20.04
2022-09-06T02:55:58.953Z,20.07
2022-09-06T02:56:58.977Z,20.08
2022-09-06T02:57:59.017Z,20.07
2022-09-06T02:58:59.038Z,20.08
2022-09-06T02:59:58.052Z,20.05
2022-09-06T03:00:58.131Z,20.07
2022-09-06T03:01:58.189Z,20.05
2022-09-06T03:02:58.121Z,20.04
2022-09-06T03:03:58.110Z,20.01
2022-09-06T03:04:58.128Z,19.97
2022-09-06T03:05:58.130Z,19.94
2022-09-06T03:06:58.150Z,19.90
2022-09-06T03:07:58.255Z,19.89
2022-09-06T03:08:58.216Z,19.89
2022-09-06T03:09:58.258Z,19.89
2022-09-06T03:10:57.998Z,19.85
2022-09-06T03:11:58.008Z,19.83
2022-09-06T03:12:58.066Z,19.82
2022-09-06T03:13:58.100Z,19.80
2022-09-06T03:14:58.141Z,19.79
2022-09-06T03:15:58.190Z,19.76
2022-09-06T03:16:58.322Z,19.75
2022-09-06T03:17:58.360Z,19.72
2022-09-06T03:18:58.442Z,19.70
2022-09-06T03:19:58.500Z,19.70
2022-09-06T03:20:59.524Z,19.68
2022-09-06T03:21:58.662Z,19.65
2022-09-06T03:22:58.711Z,19.64
2022-09-06T03:23:57.811Z,19.64
2022-09-06T03:24:57.904Z,19.64
2022-09-06T03:25:57.938Z,19.65
2022-09-06T03:26:57.987Z,19.65
2022-09-06T03:27:57.764Z,19.65
2022-09-06T03:28:57.795Z,19.65
2022-09-06T03:29:57.810Z,19.62
2022-09-06T03:30:57.900Z,19.61
2022-09-06T03:31:57.844Z,19.58
2022-09-06T03:33:00.822Z,19.53
2022-09-06T03:33:57.690Z,19.53
2022-09-06T03:34:57.664Z,19.52
2022-09-06T03:35:57.705Z,19.53
2022-09-06T03:36:57.783Z,19.49
2022-09-06T03:37:57.809Z,19.46
2022-09-06T03:38:57.886Z,19.46
2022-09-06T03:39:58.018Z,19.42
2022-09-06T03:40:58.034Z,19.40
2022-09-06T03:41:58.093Z,19.38
2022-09-06T03:42:58.235Z,19.34
2022-09-06T03:43:58.243Z,19.31
2022-09-06T03:44:58.328Z,19.28
2022-09-06T03:45:58.395Z,19.30
2022-09-06T03:46:58.374Z,19.27
2022-09-06T03:47:58.395Z,19.25
2022-09-06T03:48:57.484Z,19.25
2022-09-06T03:49:57.527Z,19.23
2022-09-06T03:50:57.541Z,19.23
2022-09-06T03:51:57.556Z,19.21
2022-09-06T03:52:57.705Z,19.20
2022-09-06T03:53:57.600Z,19.17
2022-09-06T03:54:57.637Z,19.17
2022-09-06T03:55:57.411Z,19.16
2022-09-06T03:56:57.419Z,19.13
2022-09-06T03:57:57.435Z,19.10
2022-09-06T03:58:57.507Z,19.06
2022-09-06T03:59:57.535Z,19.01
2022-09-06T04:00:57.602Z,18.99
2022-09-06T04:01:57.604Z,18.94
2022-09-06T04:03:01.491Z,18.93
2022-09-06T04:03:57.663Z,18.91
2022-09-06T04:04:57.700Z,18.90
2022-09-06T04:05:57.770Z,18.86
2022-09-06T04:06:57.772Z,18.86
2022-09-06T04:07:57.823Z,18.82
2022-09-06T04:08:57.870Z,18.78
2022-09-06T04:09:57.890Z,18.74
2022-09-06T04:10:57.928Z,18.74
2022-09-06T04:11:58.166Z,18.72
2022-09-06T04:12:57.982Z,18.76
2022-09-06T04:13:58.018Z,18.74
2022-09-06T04:14:57.043Z,18.69
2022-09-06T04:15:57.042Z,18.65
2022-09-06T04:16:57.109Z,18.60
2022-09-06T04:17:57.101Z,18.60
2022-09-06T04:18:57.150Z,18.57
2022-09-06T04:19:57.183Z,18.56
2022-09-06T04:20:57.189Z,18.54
2022-09-06T04:21:57.228Z,18.53
2022-09-06T04:22:57.250Z,18.54
2022-09-06T04:23:57.292Z,18.57
2022-09-06T04:24:57.348Z,18.57
2022-09-06T04:25:57.373Z,18.64
2022-09-06T04:26:58.372Z,18.62
2022-09-06T04:27:57.452Z,18.62
2022-09-06T04:28:57.497Z,18.62
2022-09-06T04:29:57.552Z,18.60
2022-09-06T04:31:01.977Z,18.62
2022-09-06T04:31:58.681Z,18.64
2022-09-06T04:32:57.656Z,18.60
2022-09-06T04:33:57.697Z,18.65
2022-09-06T04:34:57.735Z,18.64
2022-09-06T04:35:56.739Z,18.62
2022-09-06T04:36:56.751Z,18.62
2022-09-06T04:37:56.794Z,18.60
2022-09-06T04:38:56.827Z,18.60
2022-09-06T04:39:56.909Z,18.57
2022-09-06T04:40:56.910Z,18.51
2022-09-06T04:41:56.953Z,18.50
2022-09-06T04:42:56.999Z,18.46
2022-09-06T04:43:57.021Z,18.47
2022-09-06T04:44:57.068Z,18.44
2022-09-06T04:45:57.186Z,18.39
2022-09-06T04:46:57.151Z,18.38
2022-09-06T04:47:57.169Z,18.39
2022-09-06T04:48:57.216Z,18.41
2022-09-06T04:49:57.237Z,18.42
2022-09-06T04:50:57.286Z,18.39
2022-09-06T04:51:57.345Z,18.39
2022-09-06T04:52:57.394Z,18.36
2022-09-06T04:53:57.416Z,18.34
2022-09-06T04:54:57.469Z,18.26
2022-09-06T04:55:57.659Z,18.31
2022-09-06T04:56:56.477Z,18.28
2022-09-06T04:57:56.548Z,18.29
2022-09-06T04:58:56.585Z,18.28
2022-09-06T04:59:56.647Z,18.26
2022-09-06T05:00:56.767Z,18.25
2022-09-06T05:01:56.838Z,18.25
2022-09-06T05:02:56.808Z,18.34
2022-09-06T05:03:57.303Z,18.20
2022-09-06T05:04:56.861Z,18.19
2022-09-06T05:05:56.891Z,18.17
2022-09-06T05:06:56.941Z,18.16
2022-09-06T05:07:57.010Z,18.16
2022-09-06T05:08:57.051Z,18.16
2022-09-06T05:09:58.022Z,18.16
2022-09-06T05:10:57.125Z,18.14
2022-09-06T05:11:57.166Z,18.14
2022-09-06T05:12:57.165Z,18.14
2022-09-06T05:13:57.169Z,18.16
2022-09-06T05:14:57.194Z,18.19
2022-09-06T05:15:56.239Z,18.17
2022-09-06T05:16:56.387Z,18.17
2022-09-06T05:17:56.324Z,18.16
2022-09-06T05:18:56.373Z,18.17
2022-09-06T05:19:56.395Z,18.17
2022-09-06T05:20:56.464Z,18.17
2022-09-06T05:21:56.536Z,18.16
2022-09-06T05:22:56.585Z,18.17
2022-09-06T05:23:58.621Z,18.16
2022-09-06T05:24:56.705Z,18.16
2022-09-06T05:25:56.781Z,18.16
2022-09-06T05:26:56.808Z,18.17
2022-09-06T05:27:56.847Z,18.20
2022-09-06T05:28:56.925Z,18.20
2022-09-06T05:29:56.940Z,18.23
2022-09-06T05:30:56.997Z,18.23
2022-09-06T05:31:56.165Z,18.26
2022-09-06T05:32:56.047Z,18.28
2022-09-06T05:33:56.129Z,18.28
2022-09-06T05:34:56.177Z,18.31
2022-09-06T05:35:56.211Z,18.29
2022-09-06T05:36:56.250Z,18.32
2022-09-06T05:37:56.299Z,18.35
2022-09-06T05:38:56.380Z,18.36
2022-09-06T05:39:56.445Z,18.36
2022-09-06T05:40:56.447Z,18.39
2022-09-06T05:41:56.521Z,18.42
2022-09-06T05:42:56.543Z,18.44
2022-09-06T05:43:56.608Z,18.44
2022-09-06T05:44:56.665Z,18.42
2022-09-06T05:45:56.745Z,18.46
2022-09-06T05:46:56.761Z,18.44
2022-09-06T05:47:56.779Z,18.42
2022-09-06T05:48:55.782Z,18.44
2022-09-06T05:49:55.870Z,18.46
2022-09-06T05:50:56.827Z,18.44
2022-09-06T05:51:55.922Z,18.46
2022-09-06T05:52:55.930Z,18.36
2022-09-06T05:53:55.977Z,18.44
2022-09-06T05:54:56.112Z,18.49
2022-09-06T05:55:56.090Z,18.49
2022-09-06T05:56:56.090Z,18.50
2022-09-06T05:57:56.143Z,18.53
2022-09-06T05:58:58.172Z,18.53
2022-09-06T05:59:56.243Z,18.53
2022-09-06T06:00:56.306Z,18.54
2022-09-06T06:01:56.343Z,18.57
2022-09-06T06:02:56.414Z,18.59
2022-09-06T06:03:56.383Z,18.64
2022-09-06T06:04:56.462Z,18.65
2022-09-06T06:05:57.411Z,18.65
2022-09-06T06:06:56.510Z,18.68
2022-09-06T06:07:56.524Z,18.68
2022-09-06T06:08:55.534Z,18.68
2022-09-06T06:09:55.610Z,18.71
2022-09-06T06:10:55.673Z,18.75
2022-09-06T06:11:55.771Z,18.82
2022-09-06T06:12:55.913Z,18.78
2022-09-06T06:13:55.904Z,18.89
2022-09-06T06:14:55.966Z,18.91
2022-09-06T06:15:56.068Z,18.93
2022-09-06T06:16:56.185Z,19.05
2022-09-06T06:17:56.241Z,18.99
2022-09-06T06:18:56.335Z,19.02
2022-09-06T06:19:55.343Z,19.06
2022-09-06T06:20:55.390Z,19.07
2022-09-06T06:21:56.535Z,19.10
2022-09-06T06:22:55.475Z,19.13
2022-09-06T06:23:55.535Z,19.16
2022-09-06T06:24:55.566Z,19.25
2022-09-06T06:25:55.582Z,19.24
2022-09-06T06:26:55.642Z,19.25
2022-09-06T06:27:55.670Z,19.28
2022-09-06T06:28:55.709Z,19.31
2022-09-06T06:29:55.738Z,19.32
2022-09-06T06:30:55.743Z,19.32
2022-09-06T06:31:55.855Z,19.39
2022-09-06T06:32:56.777Z,19.40
2022-09-06T06:33:55.859Z,19.38
2022-09-06T06:34:55.890Z,19.46
2022-09-06T06:35:55.907Z,19.49
2022-09-06T06:36:55.939Z,19.52
2022-09-06T06:37:55.957Z,19.58
2022-09-06T06:38:56.007Z,19.62
2022-09-06T06:39:56.281Z,19.65
2022-09-06T06:41:00.933Z,19.70
2022-09-06T06:41:56.091Z,19.75
2022-09-06T06:42:55.147Z,19.79
2022-09-06T06:43:55.179Z,19.83
2022-09-06T06:44:55.207Z,19.86
2022-09-06T06:45:55.285Z,19.90
2022-09-06T06:46:55.219Z,19.94
2022-09-06T06:47:55.252Z,20.00
2022-09-06T06:48:55.514Z,20.02
2022-09-06T06:49:55.361Z,20.07
2022-09-06T06:50:55.371Z,20.08
2022-09-06T06:51:55.393Z,20.12
2022-09-06T06:52:55.432Z,20.15
2022-09-06T06:53:55.450Z,20.19
2022-09-06T06:54:55.479Z,20.20
2022-09-06T06:55:55.532Z,20.23
2022-09-06T06:56:55.570Z,20.26
2022-09-06T06:57:55.602Z,20.26
2022-09-06T06:58:55.652Z,20.31
2022-09-06T06:59:55.690Z,20.34
2022-09-06T07:00:55.830Z,20.35
2022-09-06T07:01:55.903Z,20.38
2022-09-06T07:02:54.763Z,20.40
2022-09-06T07:03:54.822Z,20.38
2022-09-06T07:04:54.861Z,20.46
2022-09-06T07:06:12.046Z,20.50
2022-09-06T07:07:55.965Z,20.57
2022-09-06T07:08:54.973Z,20.63
2022-09-06T07:10:56.030Z,20.76
2022-09-06T07:11:55.006Z,20.79
2022-09-06T07:12:55.019Z,20.83
2022-09-06T07:13:55.040Z,20.85
2022-09-06T07:14:55.057Z,20.90
2022-09-06T07:15:55.104Z,20.88
2022-09-06T07:16:55.145Z,20.88
2022-09-06T07:17:55.137Z,20.87
2022-09-06T07:18:55.154Z,20.90
2022-09-06T07:20:12.734Z,20.91
2022-09-06T07:21:56.255Z,20.98
2022-09-06T07:22:55.388Z,21.06
2022-09-06T07:24:10.813Z,21.11
2022-09-06T07:24:56.295Z,21.15
2022-09-06T07:25:55.344Z,21.21
2022-09-06T07:27:56.406Z,21.34
2022-09-06T07:28:55.410Z,21.38
2022-09-06T07:29:54.423Z,21.42
2022-09-06T07:30:54.475Z,21.48
2022-09-06T07:32:55.547Z,21.55
2022-09-06T07:33:55.757Z,21.55
2022-09-06T07:34:54.614Z,21.58
2022-09-06T07:35:54.640Z,21.66
2022-09-06T07:36:54.660Z,21.67
2022-09-06T07:37:54.710Z,21.70
2022-09-06T07:38:54.747Z,21.73
2022-09-06T07:39:54.857Z,21.77
2022-09-06T07:40:54.788Z,21.79
2022-09-06T07:41:54.812Z,21.83
2022-09-06T07:42:54.825Z,21.86
2022-09-06T07:43:54.842Z,21.98
2022-09-06T07:44:54.883Z,22.04
2022-09-06T07:45:54.899Z,22.08
2022-09-06T07:46:55.281Z,22.09
2022-09-06T07:48:54.969Z,22.15
2022-09-06T07:50:59.202Z,22.26
2022-09-06T07:51:55.015Z,22.29
2022-09-06T07:53:14.118Z,22.33
2022-09-06T07:54:07.420Z,22.41
2022-09-06T07:54:56.069Z,22.39
2022-09-06T07:55:54.065Z,22.39
2022-09-06T07:56:54.097Z,22.44
2022-09-06T07:57:54.111Z,22.46
2022-09-06T07:58:54.123Z,22.49
2022-09-06T07:59:54.173Z,22.56
2022-09-06T08:00:54.224Z,22.59
2022-09-06T08:01:54.234Z,22.63
2022-09-06T08:02:54.228Z,22.69
2022-09-06T08:03:54.225Z,22.69
2022-09-06T08:04:54.275Z,22.74
2022-09-06T08:06:11.002Z,22.70
2022-09-06T08:09:54.285Z,22.78
2022-09-06T08:10:54.266Z,22.82
2022-09-06T08:11:54.271Z,22.89
2022-09-06T08:12:54.305Z,22.94
2022-09-06T08:13:54.340Z,23.00
2022-09-06T08:14:54.359Z,23.03
2022-09-06T08:15:54.432Z,23.07
2022-09-06T08:16:54.377Z,23.06
2022-09-06T08:17:54.367Z,23.14
2022-09-06T08:18:54.407Z,23.16
2022-09-06T08:19:54.429Z,23.22
2022-09-06T08:20:54.457Z,23.26
2022-09-06T08:21:55.444Z,23.32
2022-09-06T08:22:55.475Z,23.31
2022-09-06T08:23:54.577Z,23.29
2022-09-06T08:24:54.578Z,23.32
2022-09-06T08:25:54.583Z,23.35
2022-09-06T08:26:54.620Z,23.39
2022-09-06T08:27:54.633Z,23.44
2022-09-06T08:28:53.633Z,23.49
2022-09-06T08:29:53.659Z,23.54
2022-09-06T08:30:53.673Z,23.49
2022-09-06T08:31:53.820Z,23.53
2022-09-06T08:32:53.711Z,23.59
2022-09-06T08:33:53.734Z,23.62
2022-09-06T08:34:53.780Z,23.63
2022-09-06T08:35:53.792Z,23.68
2022-09-06T08:36:53.811Z,23.71
2022-09-06T08:37:53.918Z,23.74
2022-09-06T08:38:53.860Z,23.78
2022-09-06T08:39:53.934Z,23.78
2022-09-06T08:40:53.902Z,23.79
2022-09-06T08:41:53.938Z,23.82
2022-09-06T08:42:53.971Z,23.90
2022-09-06T08:44:55.618Z,23.94
2022-09-06T08:45:55.876Z,23.97
2022-09-06T08:46:54.104Z,24.00
2022-09-06T08:47:54.070Z,24.02
2022-09-06T08:48:54.078Z,24.08
2022-09-06T08:49:54.101Z,24.11
2022-09-06T08:50:54.115Z,24.16
2022-09-06T08:51:54.148Z,24.19
2022-09-06T08:53:13.656Z,24.24
2022-09-06T08:53:55.207Z,24.27
2022-09-06T08:54:54.239Z,24.36
2022-09-06T08:55:54.256Z,24.37
2022-09-06T08:56:53.268Z,24.41
2022-09-06T08:57:53.335Z,24.44
2022-09-06T08:58:53.325Z,24.44
2022-09-06T08:59:53.327Z,24.44
2022-09-06T09:00:53.430Z,24.42
2022-09-06T09:01:53.465Z,24.46
2022-09-06T09:02:53.388Z,24.48
2022-09-06T09:03:53.389Z,24.53
2022-09-06T09:04:53.409Z,24.63
2022-09-06T09:05:53.439Z,24.70
2022-09-06T09:06:53.443Z,24.82
2022-09-06T09:07:53.486Z,24.90
2022-09-06T09:08:53.497Z,24.97
2022-09-06T09:09:53.511Z,25.04
2022-09-06T09:10:53.539Z,25.09
2022-09-06T09:11:53.530Z,25.17
2022-09-06T09:12:53.529Z,25.24
2022-09-06T09:13:55.669Z,25.23
2022-09-06T09:14:53.563Z,25.27
2022-09-06T09:15:53.648Z,25.23
2022-09-06T09:16:53.597Z,25.23
2022-09-06T09:17:53.650Z,25.26
2022-09-06T09:18:53.644Z,25.34
2022-09-06T09:19:53.653Z,25.41
2022-09-06T09:20:53.690Z,25.49
2022-09-06T09:21:53.683Z,25.51
2022-09-06T09:22:53.694Z,25.56
2022-09-06T09:23:53.713Z,25.51
2022-09-06T09:24:53.706Z,25.51
2022-09-06T09:25:53.711Z,25.51
2022-09-06T09:26:53.725Z,25.54
2022-09-06T09:27:53.743Z,25.49
2022-09-06T09:28:53.747Z,25.46
2022-09-06T09:30:54.757Z,25.48
2022-09-06T09:31:54.170Z,25.56
2022-09-06T09:32:53.795Z,25.63
2022-09-06T09:33:53.797Z,25.67
2022-09-06T09:34:53.820Z,25.69
2022-09-06T09:35:52.736Z,25.78
2022-09-06T09:37:57.373Z,25.93
2022-09-06T09:38:53.793Z,25.98
2022-09-06T09:39:52.850Z,26.06
2022-09-06T09:40:52.737Z,26.12
2022-09-06T09:41:52.747Z,26.19
2022-09-06T09:42:53.717Z,26.20
2022-09-06T09:43:52.764Z,26.16
2022-09-06T09:44:52.790Z,26.16
2022-09-06T09:45:52.769Z,26.09
2022-09-06T09:46:52.869Z,26.03
2022-09-06T09:47:52.787Z,26.06
2022-09-06T09:48:52.795Z,26.16
2022-09-06T09:49:52.813Z,26.19
2022-09-06T09:50:52.812Z,26.29
2022-09-06T09:51:52.790Z,26.34
2022-09-06T09:52:52.790Z,26.31
2022-09-06T09:53:52.784Z,26.29
2022-09-06T09:54:52.833Z,26.29
2022-09-06T09:55:52.833Z,26.27
2022-09-06T09:56:52.833Z,26.29
2022-09-06T09:57:52.824Z,26.34
2022-09-06T09:58:52.793Z,26.35
2022-09-06T09:59:52.822Z,26.38
2022-09-06T10:00:52.855Z,26.46
2022-09-06T10:01:52.859Z,26.54
2022-09-06T10:02:52.822Z,26.64
2022-09-06T10:04:53.811Z,26.75
2022-09-06T10:05:57.593Z,26.86
2022-09-06T10:07:09.811Z,26.90
2022-09-06T10:07:53.819Z,26.97
2022-09-06T10:08:52.827Z,26.93
2022-09-06T10:09:52.825Z,26.84
2022-09-06T10:10:52.844Z,26.79
2022-09-06T10:11:52.852Z,26.78
2022-09-06T10:12:52.874Z,26.81
2022-09-06T10:13:52.893Z,26.86
2022-09-06T10:14:52.917Z,26.87
2022-09-06T10:15:52.924Z,26.96
2022-09-06T10:16:52.912Z,27.05
2022-09-06T10:17:52.936Z,27.16
2022-09-06T10:18:52.967Z,27.25
2022-09-06T10:19:52.958Z,27.33
2022-09-06T10:20:52.947Z,27.40
2022-09-06T10:21:53.911Z,27.48
2022-09-06T10:22:52.971Z,27.55
2022-09-06T10:24:53.977Z,27.72
2022-09-06T10:25:52.974Z,27.78
2022-09-06T10:26:52.982Z,27.86
2022-09-06T10:28:10.384Z,27.90
2022-09-06T10:28:53.997Z,27.95
2022-09-06T10:29:53.064Z,28.02
2022-09-06T10:30:53.044Z,28.06
2022-09-06T10:31:53.008Z,28.05
2022-09-06T10:32:53.005Z,28.02
2022-09-06T10:33:53.013Z,28.01
2022-09-06T10:34:52.013Z,28.09
2022-09-06T10:35:51.989Z,28.21
2022-09-06T10:36:52.021Z,28.23
2022-09-06T10:37:52.017Z,28.14
2022-09-06T10:38:52.025Z,28.05
2022-09-06T10:39:52.093Z,27.98
2022-09-06T10:40:52.053Z,27.98
2022-09-06T10:41:52.043Z,27.91
2022-09-06T10:42:52.051Z,27.88
2022-09-06T10:43:52.071Z,27.91
2022-09-06T10:44:52.033Z,27.96
2022-09-06T10:45:52.052Z,28.03
2022-09-06T10:46:52.099Z,28.18
2022-09-06T10:47:52.036Z,28.28
2022-09-06T10:48:52.038Z,28.40
2022-09-06T10:49:52.059Z,28.50
2022-09-06T10:50:52.072Z,28.57
2022-09-06T10:51:53.029Z,28.69
2022-09-06T10:52:52.065Z,28.79
2022-09-06T10:53:52.061Z,28.89
2022-09-06T10:54:52.071Z,29.00
2022-09-06T10:55:52.094Z,29.10
2022-09-06T10:56:52.096Z,29.18
2022-09-06T10:59:53.131Z,29.07
2022-09-06T11:00:52.175Z,29.07
2022-09-06T11:01:52.324Z,29.05
2022-09-06T11:05:53.264Z,29.39
2022-09-06T11:06:52.222Z,29.48
2022-09-06T11:08:55.855Z,29.69
2022-09-06T11:09:52.229Z,29.78
2022-09-06T11:10:52.233Z,29.89
2022-09-06T11:11:52.240Z,29.91
2022-09-06T11:12:52.212Z,29.74
2022-09-06T11:13:52.185Z,29.70
2022-09-06T11:14:52.168Z,29.79
2022-09-06T11:15:52.155Z,29.74
2022-09-06T11:16:52.095Z,29.70
2022-09-06T11:17:52.094Z,29.52
2022-09-06T11:18:52.033Z,29.27
2022-09-06T11:19:52.065Z,29.08
2022-09-06T11:20:52.031Z,29.05
2022-09-06T11:21:52.002Z,29.23
2022-09-06T11:22:52.023Z,29.35
2022-09-06T11:23:52.065Z,29.44
2022-09-06T11:24:52.001Z,29.58
2022-09-06T11:25:52.009Z,29.54
2022-09-06T11:26:51.938Z,29.44
2022-09-06T11:27:56.077Z,29.42
2022-09-06T11:28:53.034Z,29.49
2022-09-06T11:29:51.895Z,29.71
2022-09-06T11:30:51.897Z,29.84
2022-09-06T11:32:52.866Z,30.00
2022-09-06T11:33:51.888Z,30.13
2022-09-06T11:34:51.879Z,30.25
2022-09-06T11:35:51.858Z,30.36
2022-09-06T11:36:51.849Z,30.38
2022-09-06T11:37:51.857Z,30.30
2022-09-06T11:38:51.858Z,30.25
2022-09-06T11:40:52.887Z,30.26
2022-09-06T11:41:51.847Z,30.21
2022-09-06T11:42:51.860Z,30.11
2022-09-06T11:43:51.852Z,29.97
2022-09-06T11:44:51.861Z,30.04
2022-09-06T11:45:51.870Z,30.07
2022-09-06T11:46:51.903Z,30.16
2022-09-06T11:47:51.842Z,30.26
2022-09-06T11:48:51.888Z,30.34
2022-09-06T11:49:51.858Z,30.19
2022-09-06T11:50:51.881Z,30.06
2022-09-06T11:51:52.850Z,29.95
2022-09-06T11:52:51.880Z,29.86
2022-09-06T11:53:51.890Z,29.84
2022-09-06T11:54:51.903Z,29.97
2022-09-06T11:55:51.912Z,30.06
2022-09-06T11:56:51.921Z,30.06
2022-09-06T11:57:50.902Z,30.07
2022-09-06T11:58:50.912Z,30.11
2022-09-06T11:59:50.912Z,30.15
2022-09-06T12:00:50.929Z,30.22
2022-09-06T12:01:50.934Z,30.36
2022-09-06T12:02:51.151Z,30.46
2022-09-06T12:04:07.349Z,30.56
2022-09-06T12:04:51.909Z,30.64
2022-09-06T12:05:50.904Z,30.79
2022-09-06T12:06:50.882Z,30.81
2022-09-06T12:07:50.887Z,30.48
2022-09-06T12:08:50.902Z,30.34
2022-09-06T12:09:50.874Z,30.21
2022-09-06T12:10:50.885Z,30.07
2022-09-06T12:11:51.909Z,29.91
2022-09-06T12:12:50.844Z,29.62
2022-09-06T12:13:50.829Z,29.51
2022-09-06T12:14:50.856Z,29.32
2022-09-06T12:15:50.847Z,29.11
2022-09-06T12:16:50.829Z,28.97
2022-09-06T12:17:50.811Z,28.87
2022-09-06T12:18:50.828Z,28.79
2022-09-06T12:19:50.800Z,28.69
2022-09-06T12:20:50.777Z,28.61
2022-09-06T12:21:50.750Z,28.58
2022-09-06T12:22:50.745Z,28.57
2022-09-06T12:23:50.718Z,28.57
2022-09-06T12:24:50.699Z,28.54
2022-09-06T12:25:50.738Z,28.50
2022-09-06T12:26:55.363Z,28.48
2022-09-06T12:27:51.764Z,28.48
2022-09-06T12:28:50.762Z,28.43
2022-09-06T12:29:50.701Z,28.40
2022-09-06T12:30:50.770Z,28.39
2022-09-06T12:31:50.780Z,28.36
2022-09-06T12:32:50.884Z,28.28
2022-09-06T12:33:50.705Z,28.20
2022-09-06T12:35:59.291Z,27.91
2022-09-06T12:36:51.728Z,27.59
2022-09-06T12:37:50.732Z,27.12
2022-09-06T12:38:50.803Z,26.73
2022-09-06T12:39:50.853Z,26.50
2022-09-06T12:40:50.826Z,26.31
2022-09-06T12:41:50.838Z,26.20
2022-09-06T12:42:50.830Z,26.06
2022-09-06T12:43:50.824Z,25.86
2022-09-06T12:44:50.846Z,25.71
2022-09-06T12:45:50.883Z,25.49
2022-09-06T12:46:50.933Z,25.31
2022-09-06T12:47:50.847Z,25.20
2022-09-06T12:48:50.878Z,25.16
2022-09-06T12:49:50.880Z,25.14
2022-09-06T12:50:50.877Z,25.11
2022-09-06T12:51:50.903Z,25.12
2022-09-06T12:52:50.918Z,24.98
2022-09-06T12:53:50.904Z,24.82
2022-09-06T12:54:50.990Z,24.63
2022-09-06T12:55:50.948Z,24.48
2022-09-06T12:56:50.967Z,24.37
2022-09-06T12:57:51.007Z,24.31
2022-09-06T12:58:51.027Z,24.27
2022-09-06T12:59:51.033Z,24.27
2022-09-06T13:00:51.027Z,24.29
2022-09-06T13:01:51.193Z,24.29
2022-09-06T13:02:51.100Z,24.34
2022-09-06T13:03:51.066Z,24.39
2022-09-06T13:04:50.078Z,24.52
2022-09-06T13:05:50.051Z,24.68
2022-09-06T13:06:50.071Z,24.84
2022-09-06T13:07:50.061Z,25.04
2022-09-06T13:08:50.077Z,25.19
2022-09-06T13:09:50.124Z,25.46
2022-09-06T13:10:50.104Z,25.67
2022-09-06T13:11:50.140Z,25.93
2022-09-06T13:12:50.102Z,26.21
2022-09-06T13:13:50.123Z,26.47
2022-09-06T13:14:50.132Z,26.66
2022-09-06T13:15:50.231Z,26.76